sensor_id;sensor_type;location;lat;lon;timestamp;temperature;humidity
15115;DHT22;7658;51.456;7.622;2022-09-17T00:01:21;9.80;99.90
15115;DHT22;7658;51.456;7.622;2022-09-17T00:03:52;9.80;99.90
15115;DHT22;7658;51.456;7.622;2022-09-17T00:06:18;9.80;99.90
15115;DHT22;7658;51.456;7.622;2022-09-17T00:08:44;9.80;99.90
15115;DHT22;7658;51.456;7.622;2022-09-17T00:11:25;9.80;99.90
15115;DHT22;7658;51.456;7.622;2022-09-17T00:13:52;9.70;99.90
15115;DHT22;7658;51.456;7.622;2022-09-17T00:16:39;9.70;99.90
15115;DHT22;7658;51.456;7.622;2022-09-17T00:19:07;9.80;99.90
15115;DHT22;7658;51.456;7.622;2022-09-17T00:21:35;9.80;99.90
15115;DHT22;7658;51.456;7.622;2022-09-17T00:24:04;9.80;99.90
15115;DHT22;7658;51.456;7.622;2022-09-17T00:26:31;9.80;99.90
15115;DHT22;7658;51.456;7.622;2022-09-17T00:28:57;9.70;99.90
15115;DHT22;7658;51.456;7.622;2022-09-17T00:31:24;9.80;99.90
15115;DHT22;7658;51.456;7.622;2022-09-17T00:33:51;9.70;99.90
15115;DHT22;7658;51.456;7.622;2022-09-17T00:36:17;9.60;99.90
15115;DHT22;7658;51.456;7.622;2022-09-17T00:38:51;9.60;99.90
15115;DHT22;7658;51.456;7.622;2022-09-17T00:41:18;9.60;99.90
15115;DHT22;7658;51.456;7.622;2022-09-17T00:43:49;9.60;99.90
15115;DHT22;7658;51.456;7.622;2022-09-17T00:46:31;9.60;99.90
15115;DHT22;7658;51.456;7.622;2022-09-17T00:49:16;9.60;99.90
15115;DHT22;7658;51.456;7.622;2022-09-17T00:51:48;9.60;99.90
15115;DHT22;7658;51.456;7.622;2022-09-17T00:54:16;9.60;99.90
15115;DHT22;7658;51.456;7.622;2022-09-17T00:56:42;9.50;99.90
15115;DHT22;7658;51.456;7.622;2022-09-17T00:59:09;9.50;99.90
15115;DHT22;7658;51.456;7.622;2022-09-17T01:01:35;9.50;99.90
15115;DHT22;7658;51.456;7.622;2022-09-17T01:04:01;9.50;99.90
15115;DHT22;7658;51.456;7.622;2022-09-17T01:07:11;9.40;99.90
15115;DHT22;7658;51.456;7.622;2022-09-17T01:10:01;9.40;99.90
15115;DHT22;7658;51.456;7.622;2022-09-17T01:12:52;9.40;99.90
15115;DHT22;7658;51.456;7.622;2022-09-17T01:36:56;9.20;99.90
15115;DHT22;7658;51.456;7.622;2022-09-17T01:39:48;9.20;99.90
15115;DHT22;7658;51.456;7.622;2022-09-17T01:42:24;9.20;99.90
15115;DHT22;7658;51.456;7.622;2022-09-17T01:47:51;9.10;99.90
15115;DHT22;7658;51.456;7.622;2022-09-17T01:50:26;9.10;99.90
15115;DHT22;7658;51.456;7.622;2022-09-17T01:52:54;9.10;99.90
15115;DHT22;7658;51.456;7.622;2022-09-17T01:55:24;9.10;99.90
15115;DHT22;7658;51.456;7.622;2022-09-17T01:57:59;9.10;99.90
15115;DHT22;7658;51.456;7.622;2022-09-17T02:00:27;9.10;99.90
15115;DHT22;7658;51.456;7.622;2022-09-17T02:03:01;9.10;99.90
15115;DHT22;7658;51.456;7.622;2022-09-17T02:08:17;9.20;99.90
15115;DHT22;7658;51.456;7.622;2022-09-17T02:11:10;9.20;99.90
15115;DHT22;7658;51.456;7.622;2022-09-17T02:16:27;9.10;99.90
15115;DHT22;7658;51.456;7.622;2022-09-17T02:19:17;9.10;99.90
15115;DHT22;7658;51.456;7.622;2022-09-17T02:21:44;9.10;99.90
15115;DHT22;7658;51.456;7.622;2022-09-17T02:29:51;9.20;99.90
15115;DHT22;7658;51.456;7.622;2022-09-17T02:32:17;9.20;99.90
15115;DHT22;7658;51.456;7.622;2022-09-17T02:34:42;9.20;99.90
15115;DHT22;7658;51.456;7.622;2022-09-17T02:37:08;9.20;99.90
15115;DHT22;7658;51.456;7.622;2022-09-17T02:39:34;9.20;99.90
15115;DHT22;7658;51.456;7.622;2022-09-17T02:47:35;9.20;99.90
15115;DHT22;7658;51.456;7.622;2022-09-17T02:50:29;9.20;99.90
15115;DHT22;7658;51.456;7.622;2022-09-17T02:55:58;9.20;99.90
15115;DHT22;7658;51.456;7.622;2022-09-17T02:58:37;9.30;99.90
15115;DHT22;7658;51.456;7.622;2022-09-17T03:01:08;9.30;99.90
15115;DHT22;7658;51.456;7.622;2022-09-17T03:03:38;9.30;99.90
15115;DHT22;7658;51.456;7.622;2022-09-17T03:06:05;9.30;99.90
15115;DHT22;7658;51.456;7.622;2022-09-17T03:08:35;9.30;99.90
15115;DHT22;7658;51.456;7.622;2022-09-17T03:11:02;9.30;99.90
15115;DHT22;7658;51.456;7.622;2022-09-17T03:13:29;9.30;99.90
15115;DHT22;7658;51.456;7.622;2022-09-17T03:15:56;9.30;99.90
15115;DHT22;7658;51.456;7.622;2022-09-17T03:18:21;9.30;99.90
15115;DHT22;7658;51.456;7.622;2022-09-17T03:20:48;9.30;99.90
15115;DHT22;7658;51.456;7.622;2022-09-17T03:23:13;9.40;99.90
15115;DHT22;7658;51.456;7.622;2022-09-17T03:25:39;9.40;99.90
15115;DHT22;7658;51.456;7.622;2022-09-17T03:28:05;9.50;99.90
15115;DHT22;7658;51.456;7.622;2022-09-17T03:30:31;9.50;99.90
15115;DHT22;7658;51.456;7.622;2022-09-17T03:32:56;9.50;99.90
15115;DHT22;7658;51.456;7.622;2022-09-17T03:35:22;9.50;99.90
15115;DHT22;7658;51.456;7.622;2022-09-17T03:37:48;9.50;99.90
15115;DHT22;7658;51.456;7.622;2022-09-17T03:40:14;9.50;99.90
15115;DHT22;7658;51.456;7.622;2022-09-17T03:42:39;9.50;99.90
15115;DHT22;7658;51.456;7.622;2022-09-17T03:45:06;9.50;99.90
15115;DHT22;7658;51.456;7.622;2022-09-17T03:47:31;9.50;99.90
15115;DHT22;7658;51.456;7.622;2022-09-17T03:49:57;9.50;99.90
15115;DHT22;7658;51.456;7.622;2022-09-17T03:52:23;9.50;99.90
15115;DHT22;7658;51.456;7.622;2022-09-17T03:54:49;9.40;99.90
15115;DHT22;7658;51.456;7.622;2022-09-17T03:57:14;9.40;99.90
15115;DHT22;7658;51.456;7.622;2022-09-17T03:59:41;9.40;99.90
15115;DHT22;7658;51.456;7.622;2022-09-17T04:02:07;9.40;99.90
15115;DHT22;7658;51.456;7.622;2022-09-17T04:04:32;9.40;99.90
15115;DHT22;7658;51.456;7.622;2022-09-17T04:06:58;9.30;99.90
15115;DHT22;7658;51.456;7.622;2022-09-17T04:09:24;9.40;99.90
15115;DHT22;7658;51.456;7.622;2022-09-17T04:11:50;9.30;99.90
15115;DHT22;7658;51.456;7.622;2022-09-17T04:14:15;9.30;99.90
15115;DHT22;7658;51.456;7.622;2022-09-17T04:16:41;9.30;99.90
15115;DHT22;7658;51.456;7.622;2022-09-17T04:19:07;9.30;99.90
15115;DHT22;7658;51.456;7.622;2022-09-17T04:21:33;9.20;99.90
15115;DHT22;7658;51.456;7.622;2022-09-17T04:23:58;9.20;99.90
15115;DHT22;7658;51.456;7.622;2022-09-17T04:26:24;9.20;99.90
15115;DHT22;7658;51.456;7.622;2022-09-17T04:28:50;9.30;99.90
15115;DHT22;7658;51.456;7.622;2022-09-17T04:31:16;9.30;99.90
15115;DHT22;7658;51.456;7.622;2022-09-17T04:33:41;9.20;99.90
15115;DHT22;7658;51.456;7.622;2022-09-17T04:36:07;9.20;99.90
15115;DHT22;7658;51.456;7.622;2022-09-17T04:38:33;9.20;99.90
15115;DHT22;7658;51.456;7.622;2022-09-17T04:40:59;9.20;99.90
15115;DHT22;7658;51.456;7.622;2022-09-17T04:43:25;9.20;99.90
15115;DHT22;7658;51.456;7.622;2022-09-17T04:45:51;9.20;99.90
15115;DHT22;7658;51.456;7.622;2022-09-17T04:48:17;9.20;99.90
15115;DHT22;7658;51.456;7.622;2022-09-17T04:50:43;9.20;99.90
15115;DHT22;7658;51.456;7.622;2022-09-17T04:53:08;9.20;99.90
15115;DHT22;7658;51.456;7.622;2022-09-17T04:55:34;9.10;99.90
15115;DHT22;7658;51.456;7.622;2022-09-17T04:58:00;9.20;99.90
15115;DHT22;7658;51.456;7.622;2022-09-17T05:00:25;9.10;99.90
15115;DHT22;7658;51.456;7.622;2022-09-17T05:02:53;9.10;99.90
15115;DHT22;7658;51.456;7.622;2022-09-17T05:05:19;9.10;99.90
15115;DHT22;7658;51.456;7.622;2022-09-17T05:07:45;9.10;99.90
15115;DHT22;7658;51.456;7.622;2022-09-17T05:10:14;9.10;99.90
15115;DHT22;7658;51.456;7.622;2022-09-17T05:12:40;9.20;99.90
15115;DHT22;7658;51.456;7.622;2022-09-17T05:15:06;9.20;99.90
15115;DHT22;7658;51.456;7.622;2022-09-17T05:17:32;9.20;99.90
15115;DHT22;7658;51.456;7.622;2022-09-17T05:19:58;9.20;99.90
15115;DHT22;7658;51.456;7.622;2022-09-17T05:22:24;9.30;99.90
15115;DHT22;7658;51.456;7.622;2022-09-17T05:24:49;9.30;99.90
15115;DHT22;7658;51.456;7.622;2022-09-17T05:27:15;9.30;99.90
15115;DHT22;7658;51.456;7.622;2022-09-17T05:29:41;9.30;99.90
15115;DHT22;7658;51.456;7.622;2022-09-17T05:32:07;9.30;99.90
15115;DHT22;7658;51.456;7.622;2022-09-17T05:34:32;9.30;99.90
15115;DHT22;7658;51.456;7.622;2022-09-17T05:36:58;9.40;99.90
15115;DHT22;7658;51.456;7.622;2022-09-17T05:39:24;9.30;99.90
15115;DHT22;7658;51.456;7.622;2022-09-17T05:41:53;9.30;99.90
15115;DHT22;7658;51.456;7.622;2022-09-17T05:44:19;9.30;99.90
15115;DHT22;7658;51.456;7.622;2022-09-17T05:46:46;9.30;99.90
15115;DHT22;7658;51.456;7.622;2022-09-17T05:49:13;9.30;99.90
15115;DHT22;7658;51.456;7.622;2022-09-17T05:51:40;9.30;99.90
15115;DHT22;7658;51.456;7.622;2022-09-17T05:54:06;9.30;99.90
15115;DHT22;7658;51.456;7.622;2022-09-17T05:56:32;9.40;99.90
15115;DHT22;7658;51.456;7.622;2022-09-17T05:58:58;9.40;99.90
15115;DHT22;7658;51.456;7.622;2022-09-17T06:01:24;9.40;99.90
15115;DHT22;7658;51.456;7.622;2022-09-17T06:03:50;9.50;99.90
15115;DHT22;7658;51.456;7.622;2022-09-17T06:06:16;9.50;99.90
15115;DHT22;7658;51.456;7.622;2022-09-17T06:08:42;9.50;99.90
15115;DHT22;7658;51.456;7.622;2022-09-17T06:11:08;9.60;99.90
15115;DHT22;7658;51.456;7.622;2022-09-17T06:13:34;9.70;99.90
15115;DHT22;7658;51.456;7.622;2022-09-17T06:16:01;9.80;99.90
15115;DHT22;7658;51.456;7.622;2022-09-17T06:18:28;9.80;99.90
15115;DHT22;7658;51.456;7.622;2022-09-17T06:20:56;9.90;99.90
15115;DHT22;7658;51.456;7.622;2022-09-17T06:23:22;10.00;99.90
15115;DHT22;7658;51.456;7.622;2022-09-17T06:25:56;10.00;99.90
15115;DHT22;7658;51.456;7.622;2022-09-17T06:28:22;10.10;99.90
15115;DHT22;7658;51.456;7.622;2022-09-17T06:30:48;10.20;99.90
15115;DHT22;7658;51.456;7.622;2022-09-17T06:33:17;10.20;99.90
15115;DHT22;7658;51.456;7.622;2022-09-17T06:35:42;10.30;99.90
15115;DHT22;7658;51.456;7.622;2022-09-17T06:38:08;10.30;99.90
15115;DHT22;7658;51.456;7.622;2022-09-17T06:40:34;10.40;99.90
15115;DHT22;7658;51.456;7.622;2022-09-17T06:43:00;10.50;99.90
15115;DHT22;7658;51.456;7.622;2022-09-17T06:45:26;10.50;99.90
15115;DHT22;7658;51.456;7.622;2022-09-17T06:47:52;10.50;99.90
15115;DHT22;7658;51.456;7.622;2022-09-17T06:50:18;10.50;99.90
15115;DHT22;7658;51.456;7.622;2022-09-17T06:52:47;10.50;99.90
15115;DHT22;7658;51.456;7.622;2022-09-17T06:55:13;10.50;99.90
15115;DHT22;7658;51.456;7.622;2022-09-17T06:57:41;10.50;99.90
15115;DHT22;7658;51.456;7.622;2022-09-17T07:00:07;10.50;99.90
15115;DHT22;7658;51.456;7.622;2022-09-17T07:02:33;10.40;99.90
15115;DHT22;7658;51.456;7.622;2022-09-17T07:04:59;10.40;99.90
15115;DHT22;7658;51.456;7.622;2022-09-17T07:07:25;10.40;99.90
15115;DHT22;7658;51.456;7.622;2022-09-17T07:09:51;10.40;99.90
15115;DHT22;7658;51.456;7.622;2022-09-17T07:12:18;10.40;99.90
15115;DHT22;7658;51.456;7.622;2022-09-17T07:14:44;10.40;99.90
15115;DHT22;7658;51.456;7.622;2022-09-17T07:17:12;10.40;99.90
15115;DHT22;7658;51.456;7.622;2022-09-17T07:19:38;10.40;99.90
15115;DHT22;7658;51.456;7.622;2022-09-17T07:22:04;10.40;99.90
15115;DHT22;7658;51.456;7.622;2022-09-17T07:24:29;10.40;99.90
15115;DHT22;7658;51.456;7.622;2022-09-17T07:26:55;10.50;99.90
15115;DHT22;7658;51.456;7.622;2022-09-17T07:29:21;10.50;99.90
15115;DHT22;7658;51.456;7.622;2022-09-17T07:31:51;10.50;99.90
15115;DHT22;7658;51.456;7.622;2022-09-17T07:34:17;10.50;99.90
15115;DHT22;7658;51.456;7.622;2022-09-17T07:36:42;10.50;99.90
15115;DHT22;7658;51.456;7.622;2022-09-17T07:39:09;10.60;99.90
15115;DHT22;7658;51.456;7.622;2022-09-17T07:41:36;10.70;99.90
15115;DHT22;7658;51.456;7.622;2022-09-17T07:44:02;10.70;99.90
15115;DHT22;7658;51.456;7.622;2022-09-17T07:46:28;10.70;99.90
15115;DHT22;7658;51.456;7.622;2022-09-17T07:48:54;10.70;99.90
15115;DHT22;7658;51.456;7.622;2022-09-17T07:51:22;10.70;99.90
15115;DHT22;7658;51.456;7.622;2022-09-17T07:53:57;10.80;99.90
15115;DHT22;7658;51.456;7.622;2022-09-17T07:56:23;11.00;99.90
15115;DHT22;7658;51.456;7.622;2022-09-17T07:58:50;11.20;99.90
15115;DHT22;7658;51.456;7.622;2022-09-17T08:01:16;11.30;99.90
15115;DHT22;7658;51.456;7.622;2022-09-17T08:03:46;11.40;99.90
15115;DHT22;7658;51.456;7.622;2022-09-17T08:06:14;11.50;99.90
15115;DHT22;7658;51.456;7.622;2022-09-17T08:08:41;11.60;99.90
15115;DHT22;7658;51.456;7.622;2022-09-17T08:11:27;11.60;99.90
15115;DHT22;7658;51.456;7.622;2022-09-17T08:13:53;11.60;99.90
15115;DHT22;7658;51.456;7.622;2022-09-17T08:16:20;11.60;99.90
15115;DHT22;7658;51.456;7.622;2022-09-17T08:18:47;11.60;99.90
15115;DHT22;7658;51.456;7.622;2022-09-17T08:21:15;11.60;99.90
15115;DHT22;7658;51.456;7.622;2022-09-17T08:23:42;11.70;99.90
15115;DHT22;7658;51.456;7.622;2022-09-17T08:26:17;11.80;99.90
15115;DHT22;7658;51.456;7.622;2022-09-17T08:28:48;11.90;99.90
15115;DHT22;7658;51.456;7.622;2022-09-17T08:31:15;11.90;99.90
15115;DHT22;7658;51.456;7.622;2022-09-17T08:33:42;11.90;99.90
15115;DHT22;7658;51.456;7.622;2022-09-17T08:36:10;12.00;99.90
15115;DHT22;7658;51.456;7.622;2022-09-17T08:38:37;12.10;99.90
15115;DHT22;7658;51.456;7.622;2022-09-17T08:43:31;12.10;99.90
15115;DHT22;7658;51.456;7.622;2022-09-17T08:45:58;12.20;99.90
15115;DHT22;7658;51.456;7.622;2022-09-17T08:48:30;12.30;99.90
15115;DHT22;7658;51.456;7.622;2022-09-17T08:50:59;12.50;99.90
15115;DHT22;7658;51.456;7.622;2022-09-17T08:53:31;12.60;99.90
15115;DHT22;7658;51.456;7.622;2022-09-17T08:56:18;12.70;99.90
15115;DHT22;7658;51.456;7.622;2022-09-17T08:59:04;12.80;99.90
15115;DHT22;7658;51.456;7.622;2022-09-17T09:06:54;12.90;99.90
15115;DHT22;7658;51.456;7.622;2022-09-17T09:09:29;12.90;99.90
15115;DHT22;7658;51.456;7.622;2022-09-17T09:12:03;13.00;99.90
15115;DHT22;7658;51.456;7.622;2022-09-17T09:14:53;13.10;99.90
15115;DHT22;7658;51.456;7.622;2022-09-17T09:17:22;13.20;99.90
15115;DHT22;7658;51.456;7.622;2022-09-17T09:19:50;13.10;99.90
15115;DHT22;7658;51.456;7.622;2022-09-17T09:25:38;13.20;99.90
15115;DHT22;7658;51.456;7.622;2022-09-17T09:33:54;13.40;99.90
15115;DHT22;7658;51.456;7.622;2022-09-17T09:36:20;13.20;99.90
15115;DHT22;7658;51.456;7.622;2022-09-17T09:39:03;13.20;99.90
15115;DHT22;7658;51.456;7.622;2022-09-17T09:41:38;13.10;99.90
15115;DHT22;7658;51.456;7.622;2022-09-17T09:44:10;13.10;99.90
15115;DHT22;7658;51.456;7.622;2022-09-17T09:58:02;13.30;99.90
15115;DHT22;7658;51.456;7.622;2022-09-17T10:00:39;13.10;99.90
15115;DHT22;7658;51.456;7.622;2022-09-17T10:05:57;13.50;99.90
15115;DHT22;7658;51.456;7.622;2022-09-17T10:08:24;13.50;99.90
15115;DHT22;7658;51.456;7.622;2022-09-17T10:13:36;13.40;99.90
15115;DHT22;7658;51.456;7.622;2022-09-17T10:16:25;13.50;99.90
15115;DHT22;7658;51.456;7.622;2022-09-17T10:23:57;13.90;99.90
15115;DHT22;7658;51.456;7.622;2022-09-17T10:26:35;13.90;99.90
15115;DHT22;7658;51.456;7.622;2022-09-17T10:29:10;13.90;99.90
15115;DHT22;7658;51.456;7.622;2022-09-17T10:31:50;13.70;99.90
15115;DHT22;7658;51.456;7.622;2022-09-17T10:34:23;13.80;99.90
15115;DHT22;7658;51.456;7.622;2022-09-17T10:36:50;13.90;99.90
15115;DHT22;7658;51.456;7.622;2022-09-17T10:39:35;14.00;99.90
15115;DHT22;7658;51.456;7.622;2022-09-17T10:42:05;14.00;99.90
15115;DHT22;7658;51.456;7.622;2022-09-17T10:44:37;14.00;99.90
15115;DHT22;7658;51.456;7.622;2022-09-17T10:47:24;13.80;99.90
15115;DHT22;7658;51.456;7.622;2022-09-17T10:49:58;14.10;99.90
15115;DHT22;7658;51.456;7.622;2022-09-17T10:52:31;14.40;99.90
15115;DHT22;7658;51.456;7.622;2022-09-17T11:11:10;14.40;99.90
15115;DHT22;7658;51.456;7.622;2022-09-17T11:16:26;14.30;99.90
15115;DHT22;7658;51.456;7.622;2022-09-17T11:21:37;13.20;99.90
15115;DHT22;7658;51.456;7.622;2022-09-17T11:32:23;12.60;99.90
15115;DHT22;7658;51.456;7.622;2022-09-17T11:34:59;12.60;99.90
15115;DHT22;7658;51.456;7.622;2022-09-17T11:37:54;12.60;99.90
15115;DHT22;7658;51.456;7.622;2022-09-17T11:40:47;12.50;99.90
15115;DHT22;7658;51.456;7.622;2022-09-17T11:43:28;12.40;99.90
15115;DHT22;7658;51.456;7.622;2022-09-17T11:46:24;12.40;99.90
15115;DHT22;7658;51.456;7.622;2022-09-17T11:51:47;12.60;99.90
15115;DHT22;7658;51.456;7.622;2022-09-17T11:54:54;13.20;99.90
15115;DHT22;7658;51.456;7.622;2022-09-17T11:57:26;13.70;99.90
15115;DHT22;7658;51.456;7.622;2022-09-17T12:00:03;14.10;99.90
15115;DHT22;7658;51.456;7.622;2022-09-17T12:05:45;13.90;99.90
15115;DHT22;7658;51.456;7.622;2022-09-17T12:08:24;14.10;99.90
15115;DHT22;7658;51.456;7.622;2022-09-17T12:13:49;14.40;99.90
15115;DHT22;7658;51.456;7.622;2022-09-17T12:16:35;14.20;99.90
15115;DHT22;7658;51.456;7.622;2022-09-17T12:19:26;13.80;99.90
15115;DHT22;7658;51.456;7.622;2022-09-17T12:21:58;13.90;99.90
15115;DHT22;7658;51.456;7.622;2022-09-17T12:24:27;14.10;99.90
15115;DHT22;7658;51.456;7.622;2022-09-17T12:53:31;12.80;99.90
15115;DHT22;7658;51.456;7.622;2022-09-17T13:09:39;14.60;99.90
15115;DHT22;7658;51.456;7.622;2022-09-17T13:20:39;14.50;99.90
15115;DHT22;7658;51.456;7.622;2022-09-17T13:23:08;14.70;99.90
15115;DHT22;7658;51.456;7.622;2022-09-17T13:25:48;14.50;99.90
15115;DHT22;7658;51.456;7.622;2022-09-17T13:28:16;14.10;99.90
15115;DHT22;7658;51.456;7.622;2022-09-17T13:30:59;13.70;99.90
15115;DHT22;7658;51.456;7.622;2022-09-17T13:39:30;12.50;99.90
15115;DHT22;7658;51.456;7.622;2022-09-17T13:42:04;12.40;99.90
15115;DHT22;7658;51.456;7.622;2022-09-17T13:44:40;12.40;99.90
15115;DHT22;7658;51.456;7.622;2022-09-17T13:49:35;13.20;99.90
15115;DHT22;7658;51.456;7.622;2022-09-17T13:52:08;13.60;99.90
15115;DHT22;7658;51.456;7.622;2022-09-17T13:54:36;13.90;99.90
15115;DHT22;7658;51.456;7.622;2022-09-17T13:57:12;14.20;99.90
15115;DHT22;7658;51.456;7.622;2022-09-17T13:59:51;14.40;99.90
15115;DHT22;7658;51.456;7.622;2022-09-17T14:04:45;14.60;99.90
15115;DHT22;7658;51.456;7.622;2022-09-17T14:18:00;13.50;99.90
15115;DHT22;7658;51.456;7.622;2022-09-17T14:20:31;13.40;99.90
15115;DHT22;7658;51.456;7.622;2022-09-17T14:23:01;13.40;99.90
15115;DHT22;7658;51.456;7.622;2022-09-17T14:25:42;13.40;99.90
15115;DHT22;7658;51.456;7.622;2022-09-17T14:28:42;13.70;99.90
15115;DHT22;7658;51.456;7.622;2022-09-17T14:31:21;13.80;99.90
15115;DHT22;7658;51.456;7.622;2022-09-17T14:33:49;13.90;99.90
15115;DHT22;7658;51.456;7.622;2022-09-17T14:36:18;13.70;99.90
15115;DHT22;7658;51.456;7.622;2022-09-17T14:38:50;13.60;99.90
15115;DHT22;7658;51.456;7.622;2022-09-17T14:41:23;13.50;99.90
15115;DHT22;7658;51.456;7.622;2022-09-17T14:44:03;13.40;99.90
15115;DHT22;7658;51.456;7.622;2022-09-17T14:46:39;13.30;99.90
15115;DHT22;7658;51.456;7.622;2022-09-17T14:49:33;13.30;99.90
15115;DHT22;7658;51.456;7.622;2022-09-17T14:52:01;13.30;99.90
15115;DHT22;7658;51.456;7.622;2022-09-17T14:54:31;13.40;99.90
15115;DHT22;7658;51.456;7.622;2022-09-17T14:57:25;13.60;99.90
15115;DHT22;7658;51.456;7.622;2022-09-17T14:59:56;13.60;99.90
15115;DHT22;7658;51.456;7.622;2022-09-17T15:02:28;13.70;99.90
15115;DHT22;7658;51.456;7.622;2022-09-17T15:04:54;13.60;99.90
15115;DHT22;7658;51.456;7.622;2022-09-17T15:07:23;13.50;99.90
15115;DHT22;7658;51.456;7.622;2022-09-17T15:09:49;12.90;99.90
15115;DHT22;7658;51.456;7.622;2022-09-17T15:12:25;12.10;99.90
15115;DHT22;7658;51.456;7.622;2022-09-17T15:14:54;11.60;99.90
15115;DHT22;7658;51.456;7.622;2022-09-17T15:17:20;11.10;99.90
15115;DHT22;7658;51.456;7.622;2022-09-17T15:19:54;10.90;99.90
15115;DHT22;7658;51.456;7.622;2022-09-17T15:22:28;10.80;99.90
15115;DHT22;7658;51.456;7.622;2022-09-17T15:25:05;10.90;99.90
15115;DHT22;7658;51.456;7.622;2022-09-17T15:27:43;10.90;99.90
15115;DHT22;7658;51.456;7.622;2022-09-17T15:30:12;11.00;99.90
15115;DHT22;7658;51.456;7.622;2022-09-17T15:32:41;11.10;99.90
15115;DHT22;7658;51.456;7.622;2022-09-17T15:40:29;11.50;99.90
15115;DHT22;7658;51.456;7.622;2022-09-17T15:45:32;11.70;99.90
15115;DHT22;7658;51.456;7.622;2022-09-17T15:48:02;11.80;99.90
15115;DHT22;7658;51.456;7.622;2022-09-17T15:50:31;11.80;99.90
15115;DHT22;7658;51.456;7.622;2022-09-17T15:56:19;12.00;99.90
15115;DHT22;7658;51.456;7.622;2022-09-17T15:58:35;12.10;99.90
15115;DHT22;7658;51.456;7.622;2022-09-17T16:08:46;12.40;99.90
15115;DHT22;7658;51.456;7.622;2022-09-17T16:11:17;12.50;99.90
15115;DHT22;7658;51.456;7.622;2022-09-17T16:13:47;12.60;99.90
15115;DHT22;7658;51.456;7.622;2022-09-17T16:16:18;12.90;99.90
15115;DHT22;7658;51.456;7.622;2022-09-17T16:18:45;13.00;99.90
15115;DHT22;7658;51.456;7.622;2022-09-17T16:21:15;13.10;99.90
15115;DHT22;7658;51.456;7.622;2022-09-17T16:23:42;13.20;99.90
15115;DHT22;7658;51.456;7.622;2022-09-17T16:26:16;13.20;99.90
15115;DHT22;7658;51.456;7.622;2022-09-17T16:28:44;13.10;99.90
15115;DHT22;7658;51.456;7.622;2022-09-17T16:31:13;13.00;99.90
15115;DHT22;7658;51.456;7.622;2022-09-17T16:33:40;13.00;99.90
15115;DHT22;7658;51.456;7.622;2022-09-17T16:36:06;12.80;99.90
15115;DHT22;7658;51.456;7.622;2022-09-17T16:38:32;12.70;99.90
15115;DHT22;7658;51.456;7.622;2022-09-17T16:40:57;12.50;99.90
15115;DHT22;7658;51.456;7.622;2022-09-17T16:43:23;12.40;99.90
15115;DHT22;7658;51.456;7.622;2022-09-17T16:45:59;12.40;99.90
15115;DHT22;7658;51.456;7.622;2022-09-17T16:48:25;12.30;99.90
15115;DHT22;7658;51.456;7.622;2022-09-17T16:50:51;12.20;99.90
15115;DHT22;7658;51.456;7.622;2022-09-17T16:53:17;12.20;99.90
15115;DHT22;7658;51.456;7.622;2022-09-17T16:55:43;12.10;99.90
15115;DHT22;7658;51.456;7.622;2022-09-17T16:58:09;12.00;99.90
15115;DHT22;7658;51.456;7.622;2022-09-17T17:00:35;11.90;99.90
15115;DHT22;7658;51.456;7.622;2022-09-17T17:03:02;11.90;99.90
15115;DHT22;7658;51.456;7.622;2022-09-17T17:05:28;11.80;99.90
15115;DHT22;7658;51.456;7.622;2022-09-17T17:07:55;11.80;99.90
15115;DHT22;7658;51.456;7.622;2022-09-17T17:10:22;11.70;99.90
15115;DHT22;7658;51.456;7.622;2022-09-17T17:12:48;11.60;99.90
15115;DHT22;7658;51.456;7.622;2022-09-17T17:15:14;11.60;99.90
15115;DHT22;7658;51.456;7.622;2022-09-17T17:17:39;11.50;99.90
15115;DHT22;7658;51.456;7.622;2022-09-17T17:20:06;11.50;99.90
15115;DHT22;7658;51.456;7.622;2022-09-17T17:22:34;11.40;99.90
15115;DHT22;7658;51.456;7.622;2022-09-17T17:25:02;11.40;99.90
15115;DHT22;7658;51.456;7.622;2022-09-17T17:27:27;11.40;99.90
15115;DHT22;7658;51.456;7.622;2022-09-17T17:29:53;11.30;99.90
15115;DHT22;7658;51.456;7.622;2022-09-17T17:32:20;11.30;99.90
15115;DHT22;7658;51.456;7.622;2022-09-17T17:34:46;11.20;99.90
15115;DHT22;7658;51.456;7.622;2022-09-17T17:37:13;11.20;99.90
15115;DHT22;7658;51.456;7.622;2022-09-17T17:39:39;11.20;99.90
15115;DHT22;7658;51.456;7.622;2022-09-17T17:42:05;11.20;99.90
15115;DHT22;7658;51.456;7.622;2022-09-17T17:44:31;11.20;99.90
15115;DHT22;7658;51.456;7.622;2022-09-17T17:46:57;11.20;99.90
15115;DHT22;7658;51.456;7.622;2022-09-17T17:49:23;11.20;99.90
15115;DHT22;7658;51.456;7.622;2022-09-17T17:51:48;11.10;99.90
15115;DHT22;7658;51.456;7.622;2022-09-17T17:54:14;11.20;99.90
15115;DHT22;7658;51.456;7.622;2022-09-17T17:56:40;11.10;99.90
15115;DHT22;7658;51.456;7.622;2022-09-17T17:59:06;11.10;99.90
15115;DHT22;7658;51.456;7.622;2022-09-17T18:01:31;11.10;99.90
15115;DHT22;7658;51.456;7.622;2022-09-17T18:04:01;11.10;99.90
15115;DHT22;7658;51.456;7.622;2022-09-17T18:06:28;11.00;99.90
15115;DHT22;7658;51.456;7.622;2022-09-17T18:08:54;10.90;99.90
15115;DHT22;7658;51.456;7.622;2022-09-17T18:11:21;10.90;99.90
15115;DHT22;7658;51.456;7.622;2022-09-17T18:13:51;10.90;99.90
15115;DHT22;7658;51.456;7.622;2022-09-17T18:16:17;10.80;99.90
15115;DHT22;7658;51.456;7.622;2022-09-17T18:18:44;10.70;99.90
15115;DHT22;7658;51.456;7.622;2022-09-17T18:21:13;10.70;99.90
15115;DHT22;7658;51.456;7.622;2022-09-17T18:23:40;10.70;99.90
15115;DHT22;7658;51.456;7.622;2022-09-17T18:26:10;10.60;99.90
15115;DHT22;7658;51.456;7.622;2022-09-17T18:28:37;10.60;99.90
15115;DHT22;7658;51.456;7.622;2022-09-17T18:33:43;10.50;99.90
15115;DHT22;7658;51.456;7.622;2022-09-17T18:36:09;10.60;99.90
15115;DHT22;7658;51.456;7.622;2022-09-17T18:38:35;10.50;99.90
15115;DHT22;7658;51.456;7.622;2022-09-17T18:41:10;10.50;99.90
15115;DHT22;7658;51.456;7.622;2022-09-17T18:43:37;10.50;99.90
15115;DHT22;7658;51.456;7.622;2022-09-17T18:46:03;10.50;99.90
15115;DHT22;7658;51.456;7.622;2022-09-17T18:48:29;10.50;99.90
15115;DHT22;7658;51.456;7.622;2022-09-17T18:51:07;10.50;99.90
15115;DHT22;7658;51.456;7.622;2022-09-17T18:53:35;10.50;99.90
15115;DHT22;7658;51.456;7.622;2022-09-17T18:56:09;10.50;99.90
15115;DHT22;7658;51.456;7.622;2022-09-17T18:58:37;10.40;99.90
15115;DHT22;7658;51.456;7.622;2022-09-17T19:01:06;10.40;99.90
15115;DHT22;7658;51.456;7.622;2022-09-17T19:03:33;10.40;99.90
15115;DHT22;7658;51.456;7.622;2022-09-17T19:06:00;10.40;99.90
15115;DHT22;7658;51.456;7.622;2022-09-17T19:08:25;10.40;99.90
15115;DHT22;7658;51.456;7.622;2022-09-17T19:10:52;10.40;99.90
15115;DHT22;7658;51.456;7.622;2022-09-17T19:13:18;10.50;99.90
15115;DHT22;7658;51.456;7.622;2022-09-17T19:15:44;10.50;99.90
15115;DHT22;7658;51.456;7.622;2022-09-17T19:18:12;10.50;99.90
15115;DHT22;7658;51.456;7.622;2022-09-17T19:20:38;10.50;99.90
15115;DHT22;7658;51.456;7.622;2022-09-17T19:23:04;10.50;99.90
15115;DHT22;7658;51.456;7.622;2022-09-17T19:25:30;10.50;99.90
15115;DHT22;7658;51.456;7.622;2022-09-17T19:27:57;10.50;99.90
15115;DHT22;7658;51.456;7.622;2022-09-17T19:30:23;10.50;99.90
15115;DHT22;7658;51.456;7.622;2022-09-17T19:32:50;10.50;99.90
15115;DHT22;7658;51.456;7.622;2022-09-17T19:35:16;10.50;99.90
15115;DHT22;7658;51.456;7.622;2022-09-17T19:37:41;10.60;99.90
15115;DHT22;7658;51.456;7.622;2022-09-17T19:40:08;10.60;99.90
15115;DHT22;7658;51.456;7.622;2022-09-17T19:42:34;10.70;99.90